Time;durP1;ratioP1;P1;durP2;ratioP2;P2;SDS_P1;SDS_P2;PMS_P1;PMS_P2;Temp;Humidity;BMP_temperature;BMP_pressure;BME280_temperature;BME280_humidity;BME280_pressure;Samples;Min_cycle;Max_cycle;Signal;HPM_P1;HPM_P2
2021/04/26 00:04:22;;;;;;;7.20;4.23;;;;;;;18.60;33.24;101768.84;30991321;28;20289;-55
2021/04/26 00:19:23;;;;;;;7.93;4.50;;;;;;;18.53;32.74;101758.81;30990452;28;20655;-54
2021/04/26 00:34:24;;;;;;;6.53;4.78;;;;;;;18.47;32.89;101746.06;30989345;28;20293;-57
2021/04/26 00:49:25;;;;;;;5.87;4.33;;;;;;;18.41;33.08;101740.25;30907219;28;20412;-55
2021/04/26 01:04:26;;;;;;;7.37;4.37;;;;;;;18.38;33.58;101724.69;30884198;28;20304;-53
2021/04/26 01:19:33;;;;;;;6.05;4.25;;;;;;;18.35;33.09;101705.63;30885937;28;20294;-56
2021/04/26 01:34:34;;;;;;;6.88;4.32;;;;;;;18.33;32.88;101707.53;30928306;28;20046;-51
2021/04/26 01:49:36;;;;;;;5.43;4.03;;;;;;;18.31;33.47;101691.81;30986919;28;20037;-53
2021/04/26 02:04:37;;;;;;;7.00;4.00;;;;;;;18.29;33.11;101684.97;31000809;28;20297;-54
2021/04/26 02:19:38;;;;;;;6.05;4.10;;;;;;;18.27;33.37;101685.06;30983675;28;20049;-54
2021/04/26 02:34:41;;;;;;;5.77;3.87;;;;;;;18.23;33.39;101669.59;30997228;28;20046;-55
2021/04/26 02:49:43;;;;;;;6.10;3.70;;;;;;;18.21;33.58;101674.97;30979956;28;20655;-54
2021/04/26 03:04:44;;;;;;;5.32;3.45;;;;;;;18.17;33.28;101671.69;30994843;28;20042;-55
2021/04/26 03:19:45;;;;;;;4.80;3.30;;;;;;;18.16;33.15;101672.66;30990213;28;20037;-55
2021/04/26 03:34:46;;;;;;;7.47;4.07;;;;;;;18.13;33.21;101674.63;30990745;28;20305;-50
2021/04/26 03:49:47;;;;;;;5.17;3.37;;;;;;;18.12;33.72;101675.56;30905391;28;20289;-51
2021/04/26 04:04:48;;;;;;;5.43;3.33;;;;;;;18.10;33.63;101680.94;30870797;28;20290;-56
2021/04/26 04:19:49;;;;;;;4.63;3.23;;;;;;;18.10;33.86;101688.00;30870311;28;20296;-52
2021/04/26 04:34:49;;;;;;;5.33;3.00;;;;;;;18.10;33.27;101677.47;30881685;28;20294;-55
2021/04/26 04:49:50;;;;;;;4.50;2.90;;;;;;;18.11;33.83;101672.09;30976377;28;20290;-53
2021/04/26 05:04:52;;;;;;;4.00;2.60;;;;;;;18.14;33.69;101671.06;31010416;28;20289;-54
2021/04/26 05:19:53;;;;;;;5.28;2.60;;;;;;;18.17;32.91;101670.88;30982070;28;20803;-53
2021/04/26 05:34:54;;;;;;;3.90;2.60;;;;;;;18.17;33.01;101663.81;30945454;28;20035;-56
2021/04/26 05:49:55;;;;;;;4.57;2.67;;;;;;;18.17;33.18;101663.81;30944969;28;20306;-53
2021/04/26 06:04:56;;;;;;;4.40;2.40;;;;;;;18.18;33.49;101669.91;30984800;28;20286;-56
2021/04/26 06:19:57;;;;;;;4.83;1.90;;;;;;;16.24;26.24;101662.78;30987889;28;20295;-57
2021/04/26 06:34:58;;;;;;;5.35;1.50;;;;;;;14.97;28.22;101666.34;30946595;28;20285;-58
2021/04/26 06:49:59;;;;;;;5.85;1.48;;;;;;;15.27;29.99;101655.13;30952885;28;20038;-52
2021/04/26 07:05:00;;;;;;;7.72;1.83;;;;;;;16.66;31.43;101653.28;30940377;28;20026;-54
2021/04/26 07:20:05;;;;;;;4.47;1.58;;;;;;;17.34;30.17;101640.28;30946662;28;21705;-55
2021/04/26 07:35:06;;;;;;;5.97;1.60;;;;;;;17.65;28.06;101635.66;30931164;28;20133;-53
2021/04/26 07:50:08;;;;;;;8.02;1.77;;;;;;;17.92;26.18;101626.94;30905097;28;20088;-52
2021/04/26 08:05:10;;;;;;;6.78;1.75;;;;;;;18.15;27.00;101628.84;30985451;28;20043;-53
2021/04/26 08:20:11;;;;;;;5.07;1.30;;;;;;;18.48;28.37;101614.31;31006440;28;20042;-57
2021/04/26 08:35:12;;;;;;;7.07;1.65;;;;;;;18.84;27.97;101610.09;30996192;28;20034;-53
2021/04/26 08:50:13;;;;;;;2.77;1.37;;;;;;;19.33;27.74;101611.84;30981408;28;20038;-53
2021/04/26 09:05:35;;;;;;;4.53;2.10;;;;;;;19.67;27.80;101604.91;30990317;28;20301;-51
2021/04/26 09:20:36;;;;;;;4.32;2.03;;;;;;;19.81;27.58;101608.34;30985528;28;20371;-54
2021/04/26 09:35:37;;;;;;;4.43;2.50;;;;;;;19.87;27.74;101582.34;30982481;28;20508;-51
2021/04/26 09:51:03;;;;;;;4.40;2.30;;;;;;;20.25;27.84;101578.59;30969020;28;20304;-56
2021/04/26 10:06:04;;;;;;;4.95;2.72;;;;;;;21.15;26.39;101569.75;30983272;28;20783;-56
2021/04/26 10:21:32;;;;;;;6.43;3.63;;;;;;;20.87;27.24;101556.13;30984273;28;20130;-55
2021/04/26 10:36:54;;;;;;;5.90;3.25;;;;;;;20.51;27.85;101544.84;30968745;28;20089;-57
2021/04/26 10:51:54;;;;;;;5.65;3.70;;;;;;;20.81;27.91;101524.91;30981681;28;20100;-57
2021/04/26 11:07:14;;;;;;;5.97;3.70;;;;;;;20.41;29.03;101516.66;30964021;28;20034;-56
2021/04/26 11:22:15;;;;;;;7.05;4.68;;;;;;;20.30;30.01;101504.31;30981560;28;20294;-57
2021/04/26 11:37:22;;;;;;;6.57;4.07;;;;;;;20.79;29.26;101479.28;30982771;28;20038;-54
2021/04/26 11:52:24;;;;;;;6.20;3.88;;;;;;;20.44;29.93;101463.63;30968427;28;20293;-53
2021/04/26 12:07:25;;;;;;;8.73;5.47;;;;;;;20.16;30.24;101457.03;30972716;28;20034;-54
2021/04/26 12:22:26;;;;;;;8.13;5.17;;;;;;;20.12;30.50;101445.06;30969733;28;20038;-59
2021/04/26 12:37:29;;;;;;;8.80;5.70;;;;;;;20.46;30.59;101432.66;30972195;28;20364;-55
2021/04/26 12:52:30;;;;;;;9.30;5.60;;;;;;;20.48;30.27;101425.44;30955445;28;20061;-53
2021/04/26 13:07:31;;;;;;;10.07;6.17;;;;;;;20.26;31.21;101402.56;30976471;28;20397;-57
2021/04/26 13:22:32;;;;;;;7.60;5.78;;;;;;;20.29;31.89;101397.88;30981754;28;20309;-59
2021/04/26 13:37:33;;;;;;;8.50;5.83;;;;;;;20.57;31.76;101368.41;30981742;28;20404;-59
2021/04/26 13:52:34;;;;;;;7.43;5.33;;;;;;;20.66;32.22;101363.22;30980679;28;20304;-57
2021/04/26 14:07:35;;;;;;;9.73;5.97;;;;;;;20.40;33.24;101353.94;30972628;28;20640;-57
2021/04/26 14:22:36;;;;;;;8.57;5.50;;;;;;;20.24;33.24;101336.69;30990725;28;20289;-60
2021/04/26 14:37:37;;;;;;;8.07;5.40;;;;;;;20.21;33.53;101313.19;30980518;28;20097;-58
2021/04/26 14:52:38;;;;;;;10.37;6.33;;;;;;;20.12;32.68;101297.28;30977528;28;20034;-57
2021/04/26 15:07:39;;;;;;;9.40;6.53;;;;;;;19.96;32.31;101284.47;30987170;28;20300;-58
2021/04/26 15:22:40;;;;;;;9.80;6.53;;;;;;;19.87;32.41;101276.34;30983514;28;20364;-52
2021/04/26 15:37:41;;;;;;;9.33;6.70;;;;;;;19.81;32.36;101268.06;30984222;28;20496;-54
2021/04/26 15:52:42;;;;;;;9.30;6.00;;;;;;;19.79;32.58;101262.06;30996498;28;20301;-56
2021/04/26 16:07:42;;;;;;;9.97;6.37;;;;;;;19.70;32.30;101253.13;30991024;28;20878;-56
2021/04/26 16:22:46;;;;;;;8.83;4.60;;;;;;;19.50;27.84;101240.66;30999036;28;20397;-59
2021/04/26 16:37:47;;;;;;;7.80;5.38;;;;;;;19.16;32.17;101240.69;31012218;28;20316;-56
2021/04/26 16:52:48;;;;;;;6.28;4.63;;;;;;;19.22;33.42;101233.13;30991199;28;20042;-56
2021/04/26 17:07:49;;;;;;;5.60;3.53;;;;;;;18.60;23.96;101223.84;30985371;28;20042;-58
2021/04/26 17:22:52;;;;;;;6.60;2.03;;;;;;;17.06;21.91;101223.56;30983464;28;20488;-58
2021/04/26 17:37:53;;;;;;;5.20;2.42;;;;;;;17.99;27.77;101210.81;30975195;28;20644;-58
2021/04/26 17:52:55;;;;;;;6.13;2.50;;;;;;;18.87;28.94;101208.69;30966074;28;20042;-55
2021/04/26 18:07:55;;;;;;;5.38;3.05;;;;;;;19.42;29.12;101213.13;30966171;28;20289;-57
2021/04/26 18:22:56;;;;;;;6.50;3.40;;;;;;;19.72;28.65;101218.69;30968420;28;20037;-58
2021/04/26 18:37:57;;;;;;;6.67;2.80;;;;;;;20.06;28.26;101224.69;30988789;28;20686;-59
2021/04/26 18:52:58;;;;;;;7.23;3.63;;;;;;;20.15;28.43;101233.66;30983915;28;20297;-57
2021/04/26 19:07:59;;;;;;;5.40;3.50;;;;;;;19.96;28.25;101258.94;30975476;28;20307;-55
2021/04/26 19:23:01;;;;;;;7.07;3.83;;;;;;;19.84;28.30;101262.56;30978349;28;20325;-57
2021/04/26 19:38:04;;;;;;;7.63;3.97;;;;;;;19.78;28.59;101263.88;30977243;28;20301;-58
2021/04/26 19:53:06;;;;;;;5.85;4.03;;;;;;;19.84;28.63;101259.94;30968895;28;20116;-57
2021/04/26 20:08:07;;;;;;;6.22;3.88;;;;;;;19.94;28.74;101278.47;30998322;28;20042;-59
2021/04/26 20:23:08;;;;;;;8.07;4.95;;;;;;;19.97;28.96;101275.59;31004517;28;20100;-58
2021/04/26 20:38:09;;;;;;;6.77;4.97;;;;;;;19.95;28.82;101278.38;30988991;28;20500;-59
2021/04/26 20:53:10;;;;;;;8.20;5.30;;;;;;;19.90;29.00;101269.13;31009334;28;20297;-56
2021/04/26 21:08:11;;;;;;;6.50;4.68;;;;;;;19.77;28.56;101256.94;30978665;28;20080;-57
2021/04/26 21:23:12;;;;;;;8.00;5.20;;;;;;;19.68;29.31;101260.28;30984578;28;21193;-56
2021/04/26 21:38:13;;;;;;;7.50;4.97;;;;;;;19.58;29.20;101254.88;30989684;28;20278;-55
2021/04/26 21:53:16;;;;;;;5.63;3.50;;;;;;;19.27;29.65;101260.94;30984138;28;20710;-53
2021/04/26 22:08:17;;;;;;;6.32;3.85;;;;;;;19.18;30.69;101254.56;30978208;28;20305;-56
2021/04/26 22:23:18;;;;;;;7.37;3.93;;;;;;;19.16;31.03;101259.97;30990804;28;20074;-58
2021/04/26 22:38:18;;;;;;;7.33;4.27;;;;;;;19.11;31.63;101256.00;30990771;28;20703;-55
2021/04/26 22:53:20;;;;;;;8.73;4.67;;;;;;;19.05;31.64;101252.03;30998444;28;20316;-56
2021/04/26 23:08:21;;;;;;;6.43;4.22;;;;;;;19.01;32.67;101253.22;30984227;28;20771;-58
2021/04/26 23:23:22;;;;;;;5.93;4.03;;;;;;;18.95;32.86;101236.13;30995864;28;20102;-55
2021/04/26 23:38:22;;;;;;;6.33;4.27;;;;;;;18.88;32.93;101223.56;30991731;28;20294;-57
2021/04/26 23:53:23;;;;;;;6.80;4.20;;;;;;;18.82;33.59;101220.41;30989624;28;20309;-58
